createdAt,value
2023-02-02T00:01:25.408Z,6.98
2023-02-02T00:03:55.849Z,6.95
2023-02-02T00:06:25.095Z,7.01
2023-02-02T00:08:53.227Z,7.02
2023-02-02T00:11:20.853Z,7.00
2023-02-02T00:13:48.496Z,6.91
2023-02-02T00:16:43.194Z,6.93
2023-02-02T00:19:14.929Z,6.91
2023-02-02T00:21:43.241Z,6.91
2023-02-02T00:24:12.836Z,6.89
2023-02-02T00:26:41.862Z,6.90
2023-02-02T00:29:15.224Z,6.88
2023-02-02T00:31:42.997Z,6.92
2023-02-02T00:34:12.903Z,6.91
2023-02-02T00:36:40.710Z,6.95
2023-02-02T00:39:08.991Z,6.93
2023-02-02T00:41:36.621Z,6.94
2023-02-02T00:44:22.054Z,6.96
2023-02-02T00:46:49.677Z,6.98
2023-02-02T00:49:18.702Z,7.01
2023-02-02T00:51:46.336Z,6.98
2023-02-02T00:54:14.250Z,7.00
2023-02-02T00:56:41.949Z,7.01
2023-02-02T00:59:09.676Z,7.03
2023-02-02T01:01:37.639Z,7.03
2023-02-02T01:04:05.389Z,7.06
2023-02-02T01:06:34.352Z,7.08
2023-02-02T01:09:02.065Z,7.06
2023-02-02T01:11:31.032Z,7.06
2023-02-02T01:13:59.064Z,7.09
2023-02-02T01:16:26.885Z,7.07
2023-02-02T01:19:19.322Z,7.04
2023-02-02T01:21:48.431Z,7.09
2023-02-02T01:24:16.056Z,7.08
2023-02-02T01:26:43.819Z,7.10
2023-02-02T01:29:12.104Z,7.08
2023-02-02T01:34:25.069Z,7.07
2023-02-02T01:36:54.002Z,7.14
2023-02-02T01:39:21.565Z,7.11
2023-02-02T01:41:49.611Z,7.13
2023-02-02T01:45:15.582Z,7.15
2023-02-02T01:47:46.957Z,7.13
2023-02-02T01:50:16.911Z,7.11
2023-02-02T01:52:49.830Z,7.09
2023-02-02T01:55:21.241Z,7.13
2023-02-02T01:57:55.653Z,7.17
2023-02-02T02:00:27.088Z,7.13
2023-02-02T02:02:59.802Z,7.12
2023-02-02T02:05:31.235Z,7.09
2023-02-02T02:08:06.884Z,7.13
2023-02-02T02:10:34.905Z,7.14
2023-02-02T02:13:02.650Z,7.15
2023-02-02T02:15:51.518Z,7.14
2023-02-02T02:18:38.552Z,7.07
2023-02-02T02:22:05.746Z,7.13
2023-02-02T02:25:25.153Z,7.10
2023-02-02T02:28:29.931Z,7.09
2023-02-02T02:31:24.294Z,7.12
2023-02-02T02:34:01.093Z,7.08
2023-02-02T02:36:36.183Z,7.07
2023-02-02T02:39:16.747Z,7.04
2023-02-02T02:41:49.226Z,7.02
2023-02-02T02:44:19.188Z,7.05
2023-02-02T02:46:48.110Z,7.00
2023-02-02T02:49:18.231Z,7.03
2023-02-02T02:51:48.718Z,7.00
2023-02-02T02:54:20.997Z,7.00
2023-02-02T02:56:59.904Z,7.08
2023-02-02T02:59:38.264Z,6.93
2023-02-02T03:02:18.774Z,6.95
2023-02-02T03:04:56.912Z,7.01
2023-02-02T03:07:32.427Z,7.03
2023-02-02T03:10:01.753Z,7.03
2023-02-02T03:12:29.623Z,7.00
2023-02-02T03:14:57.194Z,7.02
2023-02-02T03:17:24.969Z,7.03
2023-02-02T03:19:53.936Z,7.00
2023-02-02T03:22:21.520Z,6.96
2023-02-02T03:24:49.111Z,6.98
2023-02-02T03:27:16.785Z,6.99
2023-02-02T03:29:44.447Z,6.99
2023-02-02T03:32:12.219Z,7.02
2023-02-02T03:34:39.836Z,7.05
2023-02-02T03:37:08.831Z,7.03
2023-02-02T03:39:36.406Z,7.01
2023-02-02T03:42:03.946Z,6.99
2023-02-02T03:44:31.617Z,7.00
2023-02-02T03:46:59.179Z,7.01
2023-02-02T03:49:26.830Z,6.99
2023-02-02T03:51:54.602Z,7.00
2023-02-02T03:54:23.676Z,7.05
2023-02-02T03:56:51.186Z,7.06
2023-02-02T03:59:18.763Z,7.11
2023-02-02T04:01:46.340Z,7.05
2023-02-02T04:04:14.014Z,7.07
2023-02-02T04:06:41.609Z,7.09
2023-02-02T04:09:09.330Z,7.10
2023-02-02T04:11:39.387Z,7.09
2023-02-02T04:14:07.687Z,7.18
2023-02-02T04:16:37.563Z,7.18
2023-02-02T04:19:05.432Z,7.25
2023-02-02T04:21:33.247Z,7.22
2023-02-02T04:24:01.042Z,7.25
2023-02-02T04:26:28.780Z,7.26
2023-02-02T04:28:57.752Z,7.35
2023-02-02T04:31:25.704Z,7.28
2023-02-02T04:33:53.289Z,7.26
2023-02-02T04:36:20.940Z,7.25
2023-02-02T04:38:50.317Z,7.24
2023-02-02T04:41:18.721Z,7.19
2023-02-02T04:43:47.037Z,7.27
2023-02-02T04:46:16.143Z,7.23
2023-02-02T04:48:43.931Z,7.26
2023-02-02T04:51:13.676Z,7.24
2023-02-02T04:53:41.541Z,7.21
2023-02-02T04:56:10.862Z,7.19
2023-02-02T04:58:38.517Z,7.26
2023-02-02T05:01:10.451Z,7.21
2023-02-02T05:03:40.161Z,7.17
2023-02-02T05:06:08.433Z,7.17
2023-02-02T05:08:36.066Z,7.21
2023-02-02T05:11:07.707Z,7.23
2023-02-02T05:13:35.693Z,7.15
2023-02-02T05:16:03.672Z,7.22
2023-02-02T05:18:31.509Z,7.20
2023-02-02T05:21:02.659Z,7.21
2023-02-02T05:23:30.839Z,7.19
2023-02-02T05:25:58.581Z,7.18
2023-02-02T05:28:26.394Z,7.13
2023-02-02T05:30:53.991Z,7.07
2023-02-02T05:33:21.575Z,7.12
2023-02-02T05:35:49.927Z,7.12
2023-02-02T05:38:18.887Z,7.09
2023-02-02T05:40:46.471Z,7.09
2023-02-02T05:43:14.115Z,7.10
2023-02-02T05:45:41.748Z,7.05
2023-02-02T05:48:10.544Z,7.08
2023-02-02T05:50:38.133Z,7.01
2023-02-02T05:53:05.820Z,7.04
2023-02-02T05:55:34.717Z,6.99
2023-02-02T05:58:02.248Z,6.94
2023-02-02T06:00:29.876Z,6.85
2023-02-02T06:02:57.459Z,6.85
2023-02-02T06:05:25.461Z,6.80
2023-02-02T06:07:53.175Z,6.77
2023-02-02T06:10:20.843Z,6.73
2023-02-02T06:12:49.775Z,6.67
2023-02-02T06:15:17.469Z,6.65
2023-02-02T06:17:45.133Z,6.71
2023-02-02T06:20:14.012Z,6.70
2023-02-02T06:22:42.818Z,6.74
2023-02-02T06:25:10.941Z,6.75
2023-02-02T06:27:38.502Z,6.74
2023-02-02T06:30:08.431Z,6.79
2023-02-02T06:32:36.043Z,6.73
2023-02-02T06:35:03.724Z,6.79
2023-02-02T06:37:31.483Z,6.77
2023-02-02T06:39:59.066Z,6.76
2023-02-02T06:42:26.773Z,6.78
2023-02-02T06:44:54.425Z,6.77
2023-02-02T06:47:24.519Z,6.79
2023-02-02T06:49:53.030Z,6.83
2023-02-02T06:52:20.597Z,6.83
2023-02-02T06:54:48.180Z,6.89
2023-02-02T06:57:15.736Z,6.89
2023-02-02T06:59:43.467Z,6.89
2023-02-02T07:02:13.309Z,6.88
2023-02-02T07:04:42.241Z,6.84
2023-02-02T07:07:10.049Z,6.83
2023-02-02T07:09:37.746Z,6.82
2023-02-02T07:12:05.411Z,6.74
2023-02-02T07:14:32.967Z,6.74
2023-02-02T07:17:00.564Z,6.68
2023-02-02T07:19:28.180Z,6.69
2023-02-02T07:21:57.107Z,6.71
2023-02-02T07:24:24.646Z,6.68
2023-02-02T07:26:52.228Z,6.65
2023-02-02T07:29:19.882Z,6.71
2023-02-02T07:31:47.599Z,6.71
2023-02-02T07:34:15.228Z,6.65
2023-02-02T07:36:42.821Z,6.63
2023-02-02T07:39:12.926Z,6.65
2023-02-02T07:41:40.607Z,6.69
2023-02-02T07:44:08.261Z,6.63
2023-02-02T07:46:35.870Z,6.62
2023-02-02T07:49:04.207Z,6.70
2023-02-02T07:51:31.799Z,6.73
2023-02-02T07:53:59.492Z,6.74
2023-02-02T07:56:28.925Z,6.79
2023-02-02T07:58:57.499Z,6.80
2023-02-02T08:01:26.594Z,6.81
2023-02-02T08:03:55.486Z,6.81
2023-02-02T08:06:24.944Z,6.82
2023-02-02T08:08:53.022Z,6.83
2023-02-02T08:11:22.960Z,6.82
2023-02-02T08:13:53.655Z,6.87
2023-02-02T08:16:22.144Z,6.81
2023-02-02T08:18:50.585Z,6.82
2023-02-02T08:21:19.076Z,6.83
2023-02-02T08:23:46.903Z,6.85
2023-02-02T08:26:18.078Z,6.87
2023-02-02T08:28:48.314Z,6.92
2023-02-02T08:31:19.631Z,6.97
2023-02-02T08:33:47.499Z,6.96
2023-02-02T08:36:17.019Z,6.97
2023-02-02T08:38:44.903Z,7.06
2023-02-02T08:41:14.564Z,7.10
2023-02-02T08:43:43.104Z,7.12
2023-02-02T08:46:12.401Z,7.13
2023-02-02T08:48:41.425Z,7.13
2023-02-02T08:51:11.610Z,7.18
2023-02-02T08:53:39.703Z,7.22
2023-02-02T08:56:10.533Z,7.21
2023-02-02T08:58:38.324Z,7.25
2023-02-02T09:01:07.809Z,7.28
2023-02-02T09:03:36.020Z,7.32
2023-02-02T09:06:10.647Z,7.35
2023-02-02T09:08:38.512Z,7.35
2023-02-02T09:11:08.368Z,7.38
2023-02-02T09:13:36.515Z,7.36
2023-02-02T09:16:06.702Z,7.41
2023-02-02T09:18:34.346Z,7.47
2023-02-02T09:21:02.671Z,7.48
2023-02-02T09:23:32.690Z,7.50
2023-02-02T09:26:10.276Z,7.50
2023-02-02T09:28:39.398Z,7.53
2023-02-02T09:31:07.690Z,7.59
2023-02-02T09:33:35.865Z,7.62
2023-02-02T09:36:08.387Z,7.59
2023-02-02T09:38:37.833Z,7.68
2023-02-02T09:41:26.865Z,7.71
2023-02-02T09:44:05.192Z,7.70
2023-02-02T09:46:46.450Z,7.71
2023-02-02T09:49:18.005Z,7.71
2023-02-02T09:51:50.050Z,7.73
2023-02-02T09:54:22.265Z,7.77
2023-02-02T09:56:57.125Z,7.81
2023-02-02T09:59:28.731Z,7.86
2023-02-02T10:01:59.561Z,7.88
2023-02-02T10:04:33.866Z,7.89
2023-02-02T10:07:09.103Z,7.96
2023-02-02T10:09:44.362Z,7.94
2023-02-02T10:12:26.914Z,8.05
2023-02-02T10:15:00.219Z,8.00
2023-02-02T10:17:39.957Z,8.04
2023-02-02T10:20:19.677Z,8.02
2023-02-02T10:22:48.858Z,7.91
2023-02-02T10:25:18.686Z,7.89
2023-02-02T10:27:57.503Z,7.87
2023-02-02T10:30:35.605Z,7.88
2023-02-02T10:33:06.770Z,7.93
2023-02-02T10:35:43.732Z,7.93
2023-02-02T10:38:24.944Z,8.00
2023-02-02T10:41:03.109Z,8.03
2023-02-02T10:43:49.085Z,8.06
2023-02-02T10:46:23.389Z,8.04
2023-02-02T10:49:01.589Z,8.10
2023-02-02T10:51:30.012Z,8.17
2023-02-02T10:54:01.020Z,8.19
2023-02-02T10:56:35.514Z,8.41
2023-02-02T10:59:07.390Z,8.15
2023-02-02T11:01:34.991Z,8.29
2023-02-02T11:04:20.129Z,8.24
2023-02-02T11:06:50.484Z,8.27
2023-02-02T11:09:22.226Z,8.11
2023-02-02T11:11:55.510Z,8.23
2023-02-02T11:14:33.676Z,8.06
2023-02-02T11:17:05.924Z,8.19
2023-02-02T11:19:34.928Z,8.23
2023-02-02T11:22:04.691Z,8.21
2023-02-02T11:24:45.946Z,8.19
2023-02-02T11:27:19.021Z,8.20
2023-02-02T11:29:49.027Z,8.23
2023-02-02T11:32:26.467Z,8.23
2023-02-02T11:35:20.867Z,8.30
2023-02-02T11:38:02.188Z,8.24
2023-02-02T11:40:33.313Z,8.29
2023-02-02T11:43:06.014Z,8.31
2023-02-02T11:45:36.574Z,8.26
2023-02-02T11:48:08.674Z,8.24
2023-02-02T11:50:36.792Z,8.26
2023-02-02T11:53:04.675Z,8.30
2023-02-02T11:55:33.474Z,8.37
2023-02-02T11:58:27.277Z,8.35
2023-02-02T12:01:01.690Z,8.29
2023-02-02T12:03:33.021Z,8.31
2023-02-02T12:06:02.928Z,8.30
2023-02-02T12:08:31.689Z,8.44
2023-02-02T12:11:02.176Z,8.42
2023-02-02T12:13:47.261Z,8.33
2023-02-02T12:16:34.580Z,8.40
2023-02-02T12:19:20.886Z,8.42
2023-02-02T12:22:00.463Z,8.48
2023-02-02T12:24:32.230Z,8.50
2023-02-02T12:27:14.167Z,8.47
2023-02-02T12:30:03.810Z,8.38
2023-02-02T12:32:55.595Z,8.41
2023-02-02T12:35:38.133Z,8.42
2023-02-02T12:38:16.410Z,8.43
2023-02-02T12:40:57.346Z,8.36
2023-02-02T12:43:34.894Z,8.38
2023-02-02T12:46:16.332Z,8.70
2023-02-02T12:49:01.691Z,9.02
2023-02-02T12:51:44.107Z,8.95
2023-02-02T12:54:32.830Z,8.97
2023-02-02T12:57:14.775Z,9.21
2023-02-02T13:00:02.617Z,9.00
2023-02-02T13:02:37.836Z,9.10
2023-02-02T13:05:33.972Z,8.82
2023-02-02T13:08:09.246Z,8.67
2023-02-02T13:10:40.644Z,8.66
2023-02-02T13:13:13.305Z,8.59
2023-02-02T13:15:45.562Z,8.67
2023-02-02T13:18:19.648Z,8.70
2023-02-02T13:20:52.858Z,8.58
2023-02-02T13:23:27.589Z,8.73
2023-02-02T13:26:01.284Z,8.60
2023-02-02T13:28:38.813Z,8.74
2023-02-02T13:31:17.538Z,8.75
2023-02-02T13:33:50.752Z,8.76
2023-02-02T13:36:25.642Z,8.80
2023-02-02T13:38:56.796Z,8.74
2023-02-02T13:41:25.460Z,8.72
2023-02-02T13:44:01.786Z,8.82
2023-02-02T13:46:36.856Z,8.68
2023-02-02T13:49:13.253Z,8.68
2023-02-02T13:51:51.945Z,8.68
2023-02-02T13:54:53.898Z,8.69
2023-02-02T13:57:38.311Z,8.74
2023-02-02T14:00:15.868Z,8.77
2023-02-02T14:02:47.516Z,8.78
2023-02-02T14:05:26.830Z,8.77
2023-02-02T14:08:03.157Z,8.95
2023-02-02T14:10:35.201Z,8.93
2023-02-02T14:13:30.359Z,8.93
2023-02-02T14:15:59.710Z,8.91
2023-02-02T14:18:55.409Z,9.07
2023-02-02T14:21:56.388Z,8.92
2023-02-02T14:24:53.744Z,8.90
2023-02-02T14:28:02.687Z,8.87
2023-02-02T14:30:34.121Z,8.84
2023-02-02T14:33:25.933Z,8.87
2023-02-02T14:36:01.793Z,8.76
2023-02-02T14:38:59.187Z,8.77
2023-02-02T14:42:00.828Z,8.74
2023-02-02T14:44:30.591Z,8.74
2023-02-02T14:46:59.192Z,8.76
2023-02-02T14:49:35.306Z,8.78
2023-02-02T14:52:05.381Z,8.75
2023-02-02T14:54:38.701Z,8.72
2023-02-02T14:57:23.396Z,8.81
2023-02-02T14:59:52.875Z,8.84
2023-02-02T15:02:25.201Z,8.74
2023-02-02T15:04:53.059Z,8.69
2023-02-02T15:07:55.547Z,8.68
2023-02-02T15:11:00.642Z,8.70
2023-02-02T15:13:37.313Z,8.61
2023-02-02T15:16:10.908Z,8.54
2023-02-02T15:18:44.697Z,8.49
2023-02-02T15:21:16.218Z,8.55
2023-02-02T15:23:46.659Z,8.53
2023-02-02T15:26:20.426Z,8.52
2023-02-02T15:28:54.177Z,8.50
2023-02-02T15:31:30.267Z,8.47
2023-02-02T15:34:01.072Z,8.47
2023-02-02T15:36:31.433Z,8.48
2023-02-02T15:39:02.515Z,8.47
2023-02-02T15:41:34.750Z,8.49
2023-02-02T15:44:19.289Z,8.54
2023-02-02T15:46:48.207Z,8.43
2023-02-02T15:49:33.892Z,8.42
2023-02-02T15:52:11.346Z,8.43
2023-02-02T15:54:39.080Z,8.47
2023-02-02T15:57:24.947Z,8.39
2023-02-02T15:59:53.928Z,8.40
2023-02-02T16:02:27.894Z,8.33
2023-02-02T16:04:55.530Z,8.42
2023-02-02T16:07:29.663Z,8.40
2023-02-02T16:09:57.796Z,8.37
2023-02-02T16:12:26.120Z,8.36
2023-02-02T16:14:56.350Z,8.36
2023-02-02T16:17:28.157Z,8.28
2023-02-02T16:20:01.151Z,8.26
2023-02-02T16:22:30.860Z,8.25
2023-02-02T16:25:02.254Z,8.30
2023-02-02T16:27:32.624Z,8.27
2023-02-02T16:30:08.391Z,8.19
2023-02-02T16:32:38.872Z,8.22
2023-02-02T16:35:26.161Z,8.11
2023-02-02T16:37:53.840Z,8.13
2023-02-02T16:40:27.375Z,8.03
2023-02-02T16:43:05.312Z,8.02
2023-02-02T16:45:36.748Z,8.01
2023-02-02T16:48:28.655Z,8.03
2023-02-02T16:51:27.864Z,7.94
2023-02-02T16:54:02.290Z,7.90
2023-02-02T16:56:33.777Z,7.86
2023-02-02T16:59:06.903Z,7.85
2023-02-02T17:01:40.622Z,7.86
2023-02-02T17:04:19.253Z,7.80
2023-02-02T17:06:52.843Z,7.80
2023-02-02T17:09:35.229Z,7.84
2023-02-02T17:12:09.344Z,7.79
2023-02-02T17:14:52.592Z,7.80
2023-02-02T17:17:21.523Z,7.80
2023-02-02T17:19:49.170Z,7.77
2023-02-02T17:22:18.365Z,7.71
2023-02-02T17:24:48.675Z,7.78
2023-02-02T17:27:23.395Z,7.73
2023-02-02T17:29:51.340Z,7.64
2023-02-02T17:32:18.858Z,7.62
2023-02-02T17:34:47.813Z,7.60
2023-02-02T17:37:15.436Z,7.58
2023-02-02T17:39:43.172Z,7.55
2023-02-02T17:42:21.634Z,7.49
2023-02-02T17:44:49.183Z,7.50
2023-02-02T17:49:44.439Z,7.52
2023-02-02T17:52:13.877Z,7.53
2023-02-02T17:54:41.458Z,7.45
2023-02-02T17:57:09.090Z,7.47
2023-02-02T17:59:36.690Z,7.39
2023-02-02T18:02:04.819Z,7.40
2023-02-02T18:04:32.412Z,7.38
2023-02-02T18:07:00.039Z,7.40
2023-02-02T18:09:33.860Z,7.39
2023-02-02T18:12:01.601Z,7.35
2023-02-02T18:14:29.261Z,7.37
2023-02-02T18:16:57.023Z,7.36
2023-02-02T18:19:24.865Z,7.33
2023-02-02T18:21:52.461Z,7.34
2023-02-02T18:24:20.013Z,7.32
2023-02-02T18:26:49.096Z,7.37
2023-02-02T18:29:16.742Z,7.38
2023-02-02T18:31:44.344Z,7.32
2023-02-02T18:34:12.620Z,7.35
2023-02-02T18:36:40.386Z,7.31
2023-02-02T18:39:09.644Z,7.30
2023-02-02T18:41:37.215Z,7.30
2023-02-02T18:44:06.121Z,7.31
2023-02-02T18:46:34.395Z,7.31
2023-02-02T18:49:02.065Z,7.32
2023-02-02T18:51:31.468Z,7.32
2023-02-02T18:54:00.323Z,7.28
2023-02-02T18:56:28.847Z,7.25
2023-02-02T18:58:56.968Z,7.26
2023-02-02T19:01:26.629Z,7.27
2023-02-02T19:03:57.292Z,7.26
2023-02-02T19:06:42.832Z,7.26
2023-02-02T19:09:10.584Z,7.24
2023-02-02T19:11:40.075Z,7.23
2023-02-02T19:14:14.832Z,7.24
2023-02-02T19:16:44.893Z,7.22
2023-02-02T19:19:23.120Z,7.22
2023-02-02T19:21:54.326Z,7.19
2023-02-02T19:24:22.058Z,7.27
2023-02-02T19:26:51.430Z,7.28
2023-02-02T19:29:22.565Z,7.27
2023-02-02T19:32:00.652Z,7.21
2023-02-02T19:34:28.345Z,7.23
2023-02-02T19:36:56.097Z,7.23
2023-02-02T19:39:30.860Z,7.22
2023-02-02T19:42:01.197Z,7.23
2023-02-02T19:44:33.941Z,7.22
2023-02-02T19:47:03.834Z,7.25
2023-02-02T19:49:34.361Z,7.20
2023-02-02T19:52:03.825Z,7.18
2023-02-02T19:54:34.745Z,7.20
2023-02-02T19:57:07.397Z,7.18
2023-02-02T19:59:36.295Z,7.24
2023-02-02T20:02:34.458Z,7.16
2023-02-02T20:05:08.199Z,7.17
2023-02-02T20:07:35.879Z,7.22
2023-02-02T20:10:18.631Z,7.20
2023-02-02T20:12:46.191Z,7.17
2023-02-02T20:15:25.696Z,7.21
2023-02-02T20:17:58.236Z,7.20
2023-02-02T20:20:28.297Z,7.22
2023-02-02T20:22:57.561Z,7.23
2023-02-02T20:25:25.130Z,7.23
2023-02-02T20:27:54.678Z,7.22
2023-02-02T20:30:26.523Z,7.20
2023-02-02T20:32:57.988Z,7.24
2023-02-02T20:35:34.266Z,7.22
2023-02-02T20:38:02.363Z,7.21
2023-02-02T20:40:31.449Z,7.22
2023-02-02T20:42:59.170Z,7.21
2023-02-02T20:45:28.077Z,7.19
2023-02-02T20:47:57.034Z,7.22
2023-02-02T20:50:25.272Z,7.19
2023-02-02T20:52:54.002Z,7.18
2023-02-02T20:55:21.721Z,7.15
2023-02-02T20:57:49.291Z,7.15
2023-02-02T21:00:21.336Z,7.16
2023-02-02T21:02:49.106Z,7.16
2023-02-02T21:05:18.185Z,7.14
2023-02-02T21:07:45.808Z,7.20
2023-02-02T21:10:13.442Z,7.16
2023-02-02T21:12:41.006Z,7.15
2023-02-02T21:15:09.650Z,7.15
2023-02-02T21:17:37.234Z,7.14
2023-02-02T21:20:05.160Z,7.14
2023-02-02T21:22:35.795Z,7.11
2023-02-02T21:25:03.397Z,7.17
2023-02-02T21:27:31.152Z,7.18
2023-02-02T21:29:59.014Z,7.20
2023-02-02T21:32:26.634Z,7.19
2023-02-02T21:34:54.191Z,7.17
2023-02-02T21:37:21.802Z,7.14
2023-02-02T21:39:51.701Z,7.14
2023-02-02T21:42:22.210Z,7.23
2023-02-02T21:44:54.177Z,7.20
2023-02-02T21:47:29.714Z,7.23
2023-02-02T21:50:00.182Z,7.27
2023-02-02T21:52:33.550Z,7.25
2023-02-02T21:55:29.125Z,7.19
2023-02-02T21:57:59.155Z,7.20
2023-02-02T22:00:30.824Z,7.16
2023-02-02T22:02:59.725Z,7.24
2023-02-02T22:05:34.287Z,7.25
2023-02-02T22:08:08.366Z,7.16
2023-02-02T22:10:39.678Z,7.23
2023-02-02T22:13:17.338Z,7.25
2023-02-02T22:15:47.319Z,7.16
2023-02-02T22:18:18.022Z,7.23
2023-02-02T22:20:47.355Z,7.16
2023-02-02T22:23:17.143Z,7.18
2023-02-02T22:25:47.751Z,7.17
2023-02-02T22:28:20.870Z,7.15
2023-02-02T22:30:48.965Z,7.13
2023-02-02T22:33:16.739Z,7.15
2023-02-02T22:35:44.677Z,7.19
2023-02-02T22:38:17.229Z,7.17
2023-02-02T22:40:46.584Z,7.13
2023-02-02T22:43:16.183Z,7.17
2023-02-02T22:45:44.153Z,7.15
2023-02-02T22:48:12.193Z,7.10
2023-02-02T22:50:39.851Z,7.12
2023-02-02T22:53:07.548Z,7.10
2023-02-02T22:55:36.052Z,7.14
2023-02-02T22:58:05.016Z,7.13
2023-02-02T23:00:33.634Z,7.16
2023-02-02T23:03:01.370Z,7.11
2023-02-02T23:05:29.255Z,7.11
2023-02-02T23:07:56.874Z,7.14
2023-02-02T23:10:27.492Z,7.16
2023-02-02T23:12:58.489Z,7.17
2023-02-02T23:15:27.957Z,7.19
2023-02-02T23:17:55.962Z,7.19
2023-02-02T23:20:23.586Z,7.21
2023-02-02T23:22:51.210Z,7.17
2023-02-02T23:25:19.268Z,7.21
2023-02-02T23:27:47.004Z,7.20
2023-02-02T23:30:15.807Z,7.20
2023-02-02T23:32:44.772Z,7.22
2023-02-02T23:35:12.399Z,7.20
2023-02-02T23:37:39.959Z,7.25
2023-02-02T23:40:08.824Z,7.24
2023-02-02T23:42:37.509Z,7.30
2023-02-02T23:45:05.751Z,7.29
2023-02-02T23:47:33.910Z,7.26
2023-02-02T23:50:06.786Z,7.30
2023-02-02T23:52:35.618Z,7.28
2023-02-02T23:55:03.945Z,7.27
2023-02-02T23:57:33.557Z,7.30
